Weather History for KSDA - December, 2013

Change the Weather History Date:

Friday, December 27, 2013

  Actual Average Record
Temperature  
Mean Temperature 30 °F -  
Max Temperature 46 °F 34 °F 61 °F (1976)
Min Temperature 14 °F 16 °F -12 °F (1951)
Degree Days  
Heating Degree Days 35    
Moisture  
Dew Point 22 °F    
Average Humidity 76    
Maximum Humidity 100    
Minimum Humidity 50    
Precipitation  
Precipitation 0.00 in - - ()
Sea Level Pressure  
Sea Level Pressure 30.21 in    
Wind  
Wind Speed 4 mph (SSW)    
Max Wind Speed 14 mph    
Max Gust Speed 17 mph    
Visibility 10 miles    
Events      
Averages and records for this station are not official NWS values.
T = Trace of Precipitation, MM = Missing Value Source: NWS Daily Summary

Daily Weather History Graph

Daily Weather History Graph

Search for Another Location

Airport or City:

Trip Planner

Search our weather history database for the weather conditions in past years. The results will help you decide how hot, cold, wet, or windy it might be!

Date:

Astronomy

Dec. 27, 2013 Rise Set
Actual Time 7:44 AM CST 5:01 PM CST
Civil Twilight 7:13 AM CST 5:32 PM CST
Nautical Twilight 6:39 AM CST 6:06 PM CST
Astronomical Twilight 6:06 AM CST 6:39 PM CST
Moon 2:16 AM CST (12/27) 1:13 PM CST (12/27)
Length of Visible Light 10h 18m
Length of Day
9h 16m
Waning Crescent, 28% of the Moon is Illuminated
Dec 27
Waning Crescent
Jan 1
New
Jan 7
First Quarter
Jan 15
Full
Jan 23
Last Quarter

Hourly Weather History & Observations

Time (CST) Temp. Windchill Dew Point Humidity Pressure Visibility Wind Dir Wind Speed Gust Speed Precip Events Conditions
12:15 AM 21.2 °F 16.4 °F 21.2 °F 100% 30.27 in 9.0 mi NE 3.5 mph - N/A   Scattered Clouds
12:35 AM 21.2 °F - 19.4 °F 93% 30.27 in 10.0 mi Calm Calm - N/A   Clear
12:55 AM 19.4 °F - 17.6 °F 93% 30.27 in 10.0 mi Calm Calm - N/A   Clear
1:15 AM 15.8 °F 10.2 °F 12.2 °F 86% 30.28 in 10.0 mi SSW 3.5 mph - N/A   Clear
1:35 AM 14.0 °F - 12.2 °F 93% 30.28 in 10.0 mi Calm Calm - N/A   Clear
1:55 AM 17.6 °F - 15.8 °F 93% 30.28 in 10.0 mi Calm Calm - N/A   Clear
2:15 AM 17.6 °F - 15.8 °F 93% 30.28 in 10.0 mi Calm Calm - N/A   Clear
2:35 AM 17.6 °F - 15.8 °F 93% 30.28 in 10.0 mi Calm Calm - N/A   Clear
2:55 AM 14.0 °F - 12.2 °F 93% 30.28 in 10.0 mi Calm Calm - N/A   Clear
3:15 AM 17.6 °F - 15.8 °F 93% 30.28 in 10.0 mi Calm Calm - N/A   Clear
3:35 AM 14.0 °F - 12.2 °F 93% 30.28 in 10.0 mi Calm Calm - N/A   Clear
3:55 AM 14.0 °F - 12.2 °F 93% 30.28 in 10.0 mi Calm Calm - N/A   Clear
4:15 AM 14.0 °F - 12.2 °F 93% 30.27 in 10.0 mi Calm Calm - N/A   Clear
4:35 AM 14.0 °F - 12.2 °F 93% 30.27 in 10.0 mi Calm Calm - N/A   Clear
4:55 AM 14.0 °F - 12.2 °F 93% 30.27 in 10.0 mi Calm Calm - N/A   Clear
5:15 AM 14.0 °F - 12.2 °F 93% 30.27 in 10.0 mi Calm Calm - N/A   Clear
5:35 AM 14.0 °F - 10.4 °F 86% 30.27 in 10.0 mi Calm Calm - N/A   Clear
5:55 AM 15.8 °F - 14.0 °F 93% 30.27 in 10.0 mi Calm Calm - N/A   Clear
6:15 AM 14.0 °F - 10.4 °F 86% 30.27 in 10.0 mi Calm Calm - N/A   Clear
6:35 AM 14.0 °F - 12.2 °F 93% 30.27 in 10.0 mi Calm Calm - N/A   Clear
6:55 AM 14.0 °F - 10.4 °F 86% 30.27 in 10.0 mi Calm Calm - N/A   Clear
7:15 AM 15.8 °F - 12.2 °F 86% 30.27 in 9.0 mi Calm Calm - N/A   Clear
7:35 AM 14.0 °F - 12.2 °F 93% 30.27 in 10.0 mi Calm Calm - N/A   Clear
7:55 AM 14.0 °F - 12.2 °F 93% 30.27 in 10.0 mi Calm Calm - N/A   Clear
8:15 AM 14.0 °F - 12.2 °F 93% 30.27 in 9.0 mi Calm Calm - N/A   Clear
8:35 AM 15.8 °F - 12.2 °F 86% 30.28 in 10.0 mi Calm Calm - N/A   Clear
8:55 AM 19.4 °F - 15.8 °F 86% 30.28 in 10.0 mi Calm Calm - N/A   Clear
9:15 AM 19.4 °F - 15.8 °F 86% 30.28 in 9.0 mi Calm Calm - N/A   Clear
9:35 AM 21.2 °F - 19.4 °F 93% 30.28 in 10.0 mi Calm Calm - N/A   Clear
9:55 AM 26.6 °F - 23.0 °F 86% 30.27 in 4.0 mi Calm Calm - N/A   Haze
10:15 AM 33.8 °F 28.6 °F 24.8 °F 70% 30.26 in 10.0 mi South 5.8 mph - N/A   Clear
10:35 AM 35.6 °F 29.9 °F 26.6 °F 70% 30.25 in 10.0 mi SSW 6.9 mph - N/A   Clear
10:55 AM 39.2 °F 32.5 °F 26.6 °F 61% 30.24 in 10.0 mi SSW 10.4 mph - N/A   Clear
11:15 AM 39.2 °F 32.5 °F 28.4 °F 65% 30.24 in 10.0 mi SSW 10.4 mph - N/A   Clear
11:35 AM 41.0 °F 34.3 °F 28.4 °F 61% 30.23 in 10.0 mi SW 11.5 mph - N/A   Clear
11:55 AM 41.0 °F 34.3 °F 28.4 °F 61% 30.22 in 10.0 mi SSW 11.5 mph - N/A   Clear
12:15 PM 41.0 °F 33.9 °F 28.4 °F 61% 30.21 in 10.0 mi SSW 12.7 mph - N/A   Clear
12:35 PM 42.8 °F 36.6 °F 28.4 °F 57% 30.20 in 10.0 mi SSW 11.5 mph - N/A   Clear
12:55 PM 44.6 °F 38.8 °F 28.4 °F 53% 30.18 in 10.0 mi SSW 11.5 mph - N/A   Clear
1:15 PM 44.6 °F 38.1 °F 28.4 °F 53% 30.18 in 10.0 mi SSW 13.8 mph - N/A   Clear
1:35 PM 46.4 °F 41.5 °F 30.2 °F 53% 30.17 in 10.0 mi SSW 10.4 mph - N/A   Clear
1:55 PM 46.4 °F 41.9 °F 30.2 °F 53% 30.16 in 10.0 mi SSW 9.2 mph - N/A   Clear
2:15 PM 46.4 °F 41.5 °F 30.2 °F 53% 30.15 in 10.0 mi SSW 10.4 mph - N/A   Clear
2:35 PM 46.4 °F 40.7 °F 30.2 °F 53% 30.14 in 10.0 mi SSW 12.7 mph - N/A   Clear
2:55 PM 46.4 °F 40.7 °F 30.2 °F 53% 30.14 in 10.0 mi SSW 12.7 mph - N/A   Clear
3:15 PM 46.4 °F 41.1 °F 30.2 °F 53% 30.14 in 10.0 mi SSW 11.5 mph 17.3 mph N/A   Clear
3:35 PM 46.4 °F 41.1 °F 28.4 °F 50% 30.14 in 10.0 mi SSW 11.5 mph 17.3 mph N/A   Clear
3:55 PM 46.4 °F 40.7 °F 30.2 °F 53% 30.13 in 10.0 mi SSW 12.7 mph - N/A   Clear
4:15 PM 44.6 °F 38.1 °F 30.2 °F 57% 30.13 in 10.0 mi SSW 13.8 mph - N/A   Clear
4:35 PM 44.6 °F 38.8 °F 28.4 °F 53% 30.13 in 10.0 mi SSW 11.5 mph - N/A   Clear
4:55 PM 42.8 °F 36.2 °F 28.4 °F 57% 30.13 in 10.0 mi SSW 12.7 mph - N/A   Clear
5:15 PM 39.2 °F 33.6 °F 28.4 °F 65% 30.14 in 10.0 mi SW 8.1 mph - N/A   Clear
5:35 PM 39.2 °F 35.0 °F 28.4 °F 65% 30.14 in 10.0 mi SW 5.8 mph - N/A   Partly Cloudy
5:55 PM 39.2 °F 33.0 °F 28.4 °F 65% 30.13 in 10.0 mi SSW 9.2 mph - N/A   Mostly Cloudy
6:15 PM 39.2 °F 32.5 °F 28.4 °F 65% 30.13 in 10.0 mi SSW 10.4 mph - N/A   Partly Cloudy
6:35 PM 37.4 °F 30.8 °F 28.4 °F 70% 30.14 in 10.0 mi SSW 9.2 mph - N/A   Clear
6:55 PM 37.4 °F 30.8 °F 30.2 °F 75% 30.14 in - SSW 9.2 mph - N/A   Clear
7:15 PM 37.4 °F 30.8 °F 30.2 °F 75% 30.14 in 10.0 mi SSW 9.2 mph - N/A   Clear
7:35 PM 37.4 °F 32.1 °F 28.4 °F 70% 30.14 in 10.0 mi SSW 6.9 mph - N/A   Clear
7:55 PM 37.4 °F 32.8 °F 28.4 °F 70% 30.15 in 10.0 mi SW 5.8 mph - N/A   Clear
8:15 PM 35.6 °F 30.7 °F 28.4 °F 75% 30.14 in 10.0 mi SW 5.8 mph - N/A   Clear
8:35 PM 35.6 °F 29.9 °F 28.4 °F 75% 30.14 in 10.0 mi SSW 6.9 mph - N/A   Clear
8:55 PM 35.6 °F - 28.4 °F 75% 30.15 in 10.0 mi Calm Calm - N/A   Clear
9:15 PM 35.6 °F - 28.4 °F 75% 30.15 in 10.0 mi Calm Calm - N/A   Clear
9:35 PM 37.4 °F 33.8 °F 28.4 °F 70% 30.15 in 10.0 mi SSW 4.6 mph - N/A   Clear
9:55 PM 37.4 °F 32.8 °F 28.4 °F 70% 30.14 in 10.0 mi South 5.8 mph - N/A   Clear
10:15 PM 37.4 °F 32.1 °F 28.4 °F 70% 30.14 in 10.0 mi SSW 6.9 mph - N/A   Clear
10:35 PM 35.6 °F 29.9 °F 26.6 °F 70% 30.14 in 10.0 mi SSW 6.9 mph - N/A   Clear
10:55 PM 33.8 °F 28.6 °F 26.6 °F 75% 30.13 in 10.0 mi SSW 5.8 mph - N/A   Clear
11:15 PM 32.0 °F 28.7 °F 26.6 °F 80% 30.13 in 10.0 mi SSW 3.5 mph - N/A   Clear
11:35 PM 32.0 °F - 26.6 °F 80% 30.12 in 10.0 mi Calm Calm - N/A   Clear
11:55 PM 32.0 °F - 26.6 °F 80% 30.12 in 10.0 mi Calm Calm - N/A   Clear